Terminal Aerodrome Forecast
Issued by NWS

Home | Current Version | Previous Version | Text Only | Print | Product List | Glossary On
Versions: 1 2 3 4 5 6 7 8 9 10 11 12 13 14 15 16 17 18 19 20 21
000
FTUS41 KILN 012300
TAFLUK
TAF
KLUK 012324Z 0200/0224 16004KT P6SM SCT250
     FM021200 17008KT P6SM -SHRA BKN050
      TEMPO 0212/0215 4SM -SHRA OVC030
     FM021500 20017G25KT P6SM SCT040 OVC080
     FM022000 22015G23KT 4SM -SHRA VCTS OVC030CB=

USA.gov is the U.S. government's official web portal to all federal, state and local government web resources and services.